sensor_id;sensor_type;location;lat;lon;timestamp;P1;durP1;ratioP1;P2;durP2;ratioP2
6475;SDS011;3271;51.910;5.840;2024-02-28T00:00:50;15.65;;;13.65;;
6475;SDS011;3271;51.910;5.840;2024-02-28T00:03:17;14.75;;;12.63;;
6475;SDS011;3271;51.910;5.840;2024-02-28T00:05:43;14.07;;;12.15;;
6475;SDS011;3271;51.910;5.840;2024-02-28T00:08:10;12.43;;;11.13;;
6475;SDS011;3271;51.910;5.840;2024-02-28T00:10:36;11.32;;;10.18;;
6475;SDS011;3271;51.910;5.840;2024-02-28T00:13:02;11.20;;;9.95;;
6475;SDS011;3271;51.910;5.840;2024-02-28T00:15:28;12.50;;;11.18;;
6475;SDS011;3271;51.910;5.840;2024-02-28T00:17:54;11.20;;;10.10;;
6475;SDS011;3271;51.910;5.840;2024-02-28T00:20:20;10.60;;;9.60;;
6475;SDS011;3271;51.910;5.840;2024-02-28T00:22:47;13.07;;;11.40;;
6475;SDS011;3271;51.910;5.840;2024-02-28T00:25:13;12.80;;;11.50;;
6475;SDS011;3271;51.910;5.840;2024-02-28T00:27:40;12.45;;;10.88;;
6475;SDS011;3271;51.910;5.840;2024-02-28T00:30:06;12.48;;;10.82;;
6475;SDS011;3271;51.910;5.840;2024-02-28T00:32:33;13.60;;;11.75;;
6475;SDS011;3271;51.910;5.840;2024-02-28T00:34:59;12.38;;;11.07;;
6475;SDS011;3271;51.910;5.840;2024-02-28T00:37:24;13.38;;;11.82;;
6475;SDS011;3271;51.910;5.840;2024-02-28T00:39:50;12.98;;;11.57;;
6475;SDS011;3271;51.910;5.840;2024-02-28T00:42:16;13.60;;;12.10;;
6475;SDS011;3271;51.910;5.840;2024-02-28T00:44:42;13.88;;;12.15;;
6475;SDS011;3271;51.910;5.840;2024-02-28T00:47:09;12.95;;;11.30;;
6475;SDS011;3271;51.910;5.840;2024-02-28T00:49:35;13.25;;;11.50;;
6475;SDS011;3271;51.910;5.840;2024-02-28T00:52:01;14.88;;;11.77;;
6475;SDS011;3271;51.910;5.840;2024-02-28T00:54:27;13.23;;;11.82;;
6475;SDS011;3271;51.910;5.840;2024-02-28T00:56:53;13.15;;;11.63;;
6475;SDS011;3271;51.910;5.840;2024-02-28T00:59:19;13.63;;;11.45;;
6475;SDS011;3271;51.910;5.840;2024-02-28T01:01:45;14.38;;;11.90;;
6475;SDS011;3271;51.910;5.840;2024-02-28T01:04:11;13.30;;;11.75;;
6475;SDS011;3271;51.910;5.840;2024-02-28T01:06:37;13.98;;;12.27;;
6475;SDS011;3271;51.910;5.840;2024-02-28T01:09:03;13.82;;;11.90;;
6475;SDS011;3271;51.910;5.840;2024-02-28T01:11:30;15.18;;;12.40;;
6475;SDS011;3271;51.910;5.840;2024-02-28T01:13:55;16.15;;;12.43;;
6475;SDS011;3271;51.910;5.840;2024-02-28T01:16:21;14.45;;;12.07;;
6475;SDS011;3271;51.910;5.840;2024-02-28T01:18:47;14.43;;;11.88;;
6475;SDS011;3271;51.910;5.840;2024-02-28T01:21:13;15.43;;;12.32;;
6475;SDS011;3271;51.910;5.840;2024-02-28T01:23:39;14.13;;;12.40;;
6475;SDS011;3271;51.910;5.840;2024-02-28T01:26:05;13.45;;;11.48;;
6475;SDS011;3271;51.910;5.840;2024-02-28T01:28:31;13.27;;;11.63;;
6475;SDS011;3271;51.910;5.840;2024-02-28T01:30:58;13.50;;;11.77;;
6475;SDS011;3271;51.910;5.840;2024-02-28T01:33:25;14.35;;;12.38;;
6475;SDS011;3271;51.910;5.840;2024-02-28T01:35:51;15.07;;;11.98;;
6475;SDS011;3271;51.910;5.840;2024-02-28T01:38:17;16.20;;;12.23;;
6475;SDS011;3271;51.910;5.840;2024-02-28T01:40:46;16.48;;;13.18;;
6475;SDS011;3271;51.910;5.840;2024-02-28T01:43:12;16.30;;;13.38;;
6475;SDS011;3271;51.910;5.840;2024-02-28T01:45:38;16.13;;;13.60;;
6475;SDS011;3271;51.910;5.840;2024-02-28T01:48:09;18.15;;;14.25;;
6475;SDS011;3271;51.910;5.840;2024-02-28T01:50:35;18.13;;;14.27;;
6475;SDS011;3271;51.910;5.840;2024-02-28T01:53:02;17.08;;;14.00;;
6475;SDS011;3271;51.910;5.840;2024-02-28T01:55:28;18.17;;;14.30;;
6475;SDS011;3271;51.910;5.840;2024-02-28T01:57:55;17.88;;;14.52;;
6475;SDS011;3271;51.910;5.840;2024-02-28T02:00:21;17.58;;;15.02;;
6475;SDS011;3271;51.910;5.840;2024-02-28T02:02:47;17.02;;;14.98;;
6475;SDS011;3271;51.910;5.840;2024-02-28T02:05:14;17.38;;;14.52;;
6475;SDS011;3271;51.910;5.840;2024-02-28T02:07:41;16.75;;;14.50;;
6475;SDS011;3271;51.910;5.840;2024-02-28T02:10:07;14.73;;;13.13;;
6475;SDS011;3271;51.910;5.840;2024-02-28T02:12:37;17.38;;;15.18;;
6475;SDS011;3271;51.910;5.840;2024-02-28T02:15:03;19.05;;;15.55;;
6475;SDS011;3271;51.910;5.840;2024-02-28T02:17:29;18.58;;;15.05;;
6475;SDS011;3271;51.910;5.840;2024-02-28T02:19:55;21.05;;;15.52;;
6475;SDS011;3271;51.910;5.840;2024-02-28T02:22:21;15.50;;;13.85;;
6475;SDS011;3271;51.910;5.840;2024-02-28T02:24:48;15.80;;;14.13;;
6475;SDS011;3271;51.910;5.840;2024-02-28T02:27:14;19.67;;;15.85;;
6475;SDS011;3271;51.910;5.840;2024-02-28T02:29:40;16.30;;;14.30;;
6475;SDS011;3271;51.910;5.840;2024-02-28T02:32:06;16.75;;;14.75;;
6475;SDS011;3271;51.910;5.840;2024-02-28T02:34:32;16.92;;;14.50;;
6475;SDS011;3271;51.910;5.840;2024-02-28T02:36:59;16.25;;;13.63;;
6475;SDS011;3271;51.910;5.840;2024-02-28T02:39:25;17.55;;;14.68;;
6475;SDS011;3271;51.910;5.840;2024-02-28T02:41:51;15.90;;;13.50;;
6475;SDS011;3271;51.910;5.840;2024-02-28T02:44:17;16.60;;;14.32;;
6475;SDS011;3271;51.910;5.840;2024-02-28T02:46:43;16.55;;;14.52;;
6475;SDS011;3271;51.910;5.840;2024-02-28T02:49:09;14.95;;;12.65;;
6475;SDS011;3271;51.910;5.840;2024-02-28T02:51:35;18.10;;;14.93;;
6475;SDS011;3271;51.910;5.840;2024-02-28T02:54:01;16.35;;;14.60;;
6475;SDS011;3271;51.910;5.840;2024-02-28T02:56:27;15.80;;;13.65;;
6475;SDS011;3271;51.910;5.840;2024-02-28T02:58:53;13.98;;;12.50;;
6475;SDS011;3271;51.910;5.840;2024-02-28T03:01:19;16.52;;;13.60;;
6475;SDS011;3271;51.910;5.840;2024-02-28T03:03:45;15.52;;;13.88;;
6475;SDS011;3271;51.910;5.840;2024-02-28T03:06:11;14.48;;;12.98;;
6475;SDS011;3271;51.910;5.840;2024-02-28T03:08:37;14.40;;;12.88;;
6475;SDS011;3271;51.910;5.840;2024-02-28T03:11:03;15.57;;;13.63;;
6475;SDS011;3271;51.910;5.840;2024-02-28T03:13:32;14.20;;;12.70;;
6475;SDS011;3271;51.910;5.840;2024-02-28T03:15:58;15.45;;;13.48;;
6475;SDS011;3271;51.910;5.840;2024-02-28T03:18:24;14.00;;;12.52;;
6475;SDS011;3271;51.910;5.840;2024-02-28T03:20:50;13.60;;;12.20;;
6475;SDS011;3271;51.910;5.840;2024-02-28T03:23:15;14.55;;;13.05;;
6475;SDS011;3271;51.910;5.840;2024-02-28T03:25:42;12.95;;;11.55;;
6475;SDS011;3271;51.910;5.840;2024-02-28T03:28:07;13.70;;;12.32;;
6475;SDS011;3271;51.910;5.840;2024-02-28T03:30:33;13.85;;;12.32;;
6475;SDS011;3271;51.910;5.840;2024-02-28T03:32:59;11.90;;;10.57;;
6475;SDS011;3271;51.910;5.840;2024-02-28T03:35:25;13.52;;;12.07;;
6475;SDS011;3271;51.910;5.840;2024-02-28T03:37:51;13.10;;;11.43;;
6475;SDS011;3271;51.910;5.840;2024-02-28T03:40:17;12.68;;;11.43;;
6475;SDS011;3271;51.910;5.840;2024-02-28T03:42:43;13.55;;;11.88;;
6475;SDS011;3271;51.910;5.840;2024-02-28T03:45:09;13.50;;;12.13;;
6475;SDS011;3271;51.910;5.840;2024-02-28T03:47:35;13.32;;;11.98;;
6475;SDS011;3271;51.910;5.840;2024-02-28T03:50:01;13.40;;;12.02;;
6475;SDS011;3271;51.910;5.840;2024-02-28T03:52:28;13.35;;;11.50;;
6475;SDS011;3271;51.910;5.840;2024-02-28T03:54:55;13.68;;;12.23;;
6475;SDS011;3271;51.910;5.840;2024-02-28T03:57:22;13.38;;;12.02;;
6475;SDS011;3271;51.910;5.840;2024-02-28T03:59:48;14.25;;;12.82;;
6475;SDS011;3271;51.910;5.840;2024-02-28T04:02:14;13.10;;;11.70;;
6475;SDS011;3271;51.910;5.840;2024-02-28T04:04:40;13.25;;;11.95;;
6475;SDS011;3271;51.910;5.840;2024-02-28T04:07:06;13.55;;;12.20;;
6475;SDS011;3271;51.910;5.840;2024-02-28T04:09:32;12.95;;;11.65;;
6475;SDS011;3271;51.910;5.840;2024-02-28T04:11:58;12.68;;;11.38;;
6475;SDS011;3271;51.910;5.840;2024-02-28T04:14:24;13.02;;;11.73;;
6475;SDS011;3271;51.910;5.840;2024-02-28T04:16:50;12.85;;;11.55;;
6475;SDS011;3271;51.910;5.840;2024-02-28T04:19:16;12.75;;;11.45;;
6475;SDS011;3271;51.910;5.840;2024-02-28T04:21:42;13.07;;;11.65;;
6475;SDS011;3271;51.910;5.840;2024-02-28T04:24:08;13.10;;;11.68;;
6475;SDS011;3271;51.910;5.840;2024-02-28T04:26:34;13.70;;;12.13;;
6475;SDS011;3271;51.910;5.840;2024-02-28T04:29:01;12.27;;;11.10;;
6475;SDS011;3271;51.910;5.840;2024-02-28T04:31:30;13.43;;;11.98;;
6475;SDS011;3271;51.910;5.840;2024-02-28T04:33:56;13.82;;;12.43;;
6475;SDS011;3271;51.910;5.840;2024-02-28T04:36:22;14.00;;;12.20;;
6475;SDS011;3271;51.910;5.840;2024-02-28T04:38:48;14.27;;;12.88;;
6475;SDS011;3271;51.910;5.840;2024-02-28T04:41:14;12.77;;;11.35;;
6475;SDS011;3271;51.910;5.840;2024-02-28T04:43:40;12.20;;;10.85;;
6475;SDS011;3271;51.910;5.840;2024-02-28T04:46:06;12.93;;;11.48;;
6475;SDS011;3271;51.910;5.840;2024-02-28T04:48:32;13.30;;;11.90;;
6475;SDS011;3271;51.910;5.840;2024-02-28T04:50:59;12.27;;;11.05;;
6475;SDS011;3271;51.910;5.840;2024-02-28T04:53:26;13.02;;;11.68;;
6475;SDS011;3271;51.910;5.840;2024-02-28T04:55:52;12.48;;;11.27;;
6475;SDS011;3271;51.910;5.840;2024-02-28T04:58:18;11.10;;;10.05;;
6475;SDS011;3271;51.910;5.840;2024-02-28T05:00:44;12.45;;;11.02;;
6475;SDS011;3271;51.910;5.840;2024-02-28T05:03:10;11.73;;;10.52;;
6475;SDS011;3271;51.910;5.840;2024-02-28T05:05:36;11.57;;;10.43;;
6475;SDS011;3271;51.910;5.840;2024-02-28T05:08:02;11.20;;;10.07;;
6475;SDS011;3271;51.910;5.840;2024-02-28T05:10:28;11.15;;;10.05;;
6475;SDS011;3271;51.910;5.840;2024-02-28T05:12:54;11.63;;;10.43;;
6475;SDS011;3271;51.910;5.840;2024-02-28T05:15:20;11.30;;;10.15;;
6475;SDS011;3271;51.910;5.840;2024-02-28T05:17:46;11.68;;;10.57;;
6475;SDS011;3271;51.910;5.840;2024-02-28T05:20:12;11.82;;;10.63;;
6475;SDS011;3271;51.910;5.840;2024-02-28T05:22:40;10.65;;;9.65;;
6475;SDS011;3271;51.910;5.840;2024-02-28T05:25:07;11.73;;;10.60;;
6475;SDS011;3271;51.910;5.840;2024-02-28T05:27:33;12.68;;;11.48;;
6475;SDS011;3271;51.910;5.840;2024-02-28T05:29:59;12.40;;;11.20;;
6475;SDS011;3271;51.910;5.840;2024-02-28T05:32:26;12.48;;;11.27;;
6475;SDS011;3271;51.910;5.840;2024-02-28T05:34:52;11.70;;;10.65;;
6475;SDS011;3271;51.910;5.840;2024-02-28T05:37:18;12.68;;;11.48;;
6475;SDS011;3271;51.910;5.840;2024-02-28T05:39:43;11.35;;;10.25;;
6475;SDS011;3271;51.910;5.840;2024-02-28T05:42:09;10.75;;;9.65;;
6475;SDS011;3271;51.910;5.840;2024-02-28T05:44:35;11.23;;;10.13;;
6475;SDS011;3271;51.910;5.840;2024-02-28T05:47:01;11.43;;;10.32;;
6475;SDS011;3271;51.910;5.840;2024-02-28T05:49:27;11.48;;;10.30;;
6475;SDS011;3271;51.910;5.840;2024-02-28T05:51:54;11.18;;;10.00;;
6475;SDS011;3271;51.910;5.840;2024-02-28T05:54:21;10.38;;;9.40;;
6475;SDS011;3271;51.910;5.840;2024-02-28T05:56:47;10.38;;;9.35;;
6475;SDS011;3271;51.910;5.840;2024-02-28T05:59:13;11.07;;;9.98;;
6475;SDS011;3271;51.910;5.840;2024-02-28T06:01:39;11.70;;;10.50;;
6475;SDS011;3271;51.910;5.840;2024-02-28T06:04:05;10.80;;;9.80;;
6475;SDS011;3271;51.910;5.840;2024-02-28T06:06:31;11.25;;;10.05;;
6475;SDS011;3271;51.910;5.840;2024-02-28T06:08:57;11.90;;;10.65;;
6475;SDS011;3271;51.910;5.840;2024-02-28T06:11:23;11.73;;;10.52;;
6475;SDS011;3271;51.910;5.840;2024-02-28T06:13:50;11.93;;;10.73;;
6475;SDS011;3271;51.910;5.840;2024-02-28T06:16:17;14.00;;;11.88;;
6475;SDS011;3271;51.910;5.840;2024-02-28T06:18:43;12.48;;;11.27;;
6475;SDS011;3271;51.910;5.840;2024-02-28T06:21:09;12.65;;;11.27;;
6475;SDS011;3271;51.910;5.840;2024-02-28T06:23:35;12.63;;;11.32;;
6475;SDS011;3271;51.910;5.840;2024-02-28T06:26:01;12.73;;;11.43;;
6475;SDS011;3271;51.910;5.840;2024-02-28T06:28:27;13.43;;;12.13;;
6475;SDS011;3271;51.910;5.840;2024-02-28T06:30:53;14.50;;;12.48;;
6475;SDS011;3271;51.910;5.840;2024-02-28T06:33:19;13.63;;;11.85;;
6475;SDS011;3271;51.910;5.840;2024-02-28T06:35:45;14.02;;;12.55;;
6475;SDS011;3271;51.910;5.840;2024-02-28T06:38:11;14.15;;;12.48;;
6475;SDS011;3271;51.910;5.840;2024-02-28T06:40:37;13.77;;;12.40;;
6475;SDS011;3271;51.910;5.840;2024-02-28T06:43:03;15.55;;;14.00;;
6475;SDS011;3271;51.910;5.840;2024-02-28T06:45:30;14.15;;;12.38;;
6475;SDS011;3271;51.910;5.840;2024-02-28T06:47:56;17.98;;;13.95;;
6475;SDS011;3271;51.910;5.840;2024-02-28T06:50:22;17.15;;;13.57;;
6475;SDS011;3271;51.910;5.840;2024-02-28T06:52:48;15.02;;;13.43;;
6475;SDS011;3271;51.910;5.840;2024-02-28T06:55:14;15.85;;;13.00;;
6475;SDS011;3271;51.910;5.840;2024-02-28T06:57:41;15.35;;;13.18;;
6475;SDS011;3271;51.910;5.840;2024-02-28T07:00:08;14.18;;;12.68;;
6475;SDS011;3271;51.910;5.840;2024-02-28T07:02:34;15.02;;;12.80;;
6475;SDS011;3271;51.910;5.840;2024-02-28T07:05:01;14.77;;;12.70;;
6475;SDS011;3271;51.910;5.840;2024-02-28T07:07:28;13.88;;;12.48;;
6475;SDS011;3271;51.910;5.840;2024-02-28T07:09:54;15.93;;;12.75;;
6475;SDS011;3271;51.910;5.840;2024-02-28T07:12:20;14.02;;;12.57;;
6475;SDS011;3271;51.910;5.840;2024-02-28T07:14:46;15.65;;;13.25;;
6475;SDS011;3271;51.910;5.840;2024-02-28T07:17:12;15.98;;;13.52;;
6475;SDS011;3271;51.910;5.840;2024-02-28T07:19:38;14.02;;;12.50;;
6475;SDS011;3271;51.910;5.840;2024-02-28T07:22:04;14.77;;;12.85;;
6475;SDS011;3271;51.910;5.840;2024-02-28T07:24:31;14.40;;;12.90;;
6475;SDS011;3271;51.910;5.840;2024-02-28T07:26:57;16.02;;;13.50;;
6475;SDS011;3271;51.910;5.840;2024-02-28T07:29:23;14.98;;;13.45;;
6475;SDS011;3271;51.910;5.840;2024-02-28T07:31:50;18.17;;;13.63;;
6475;SDS011;3271;51.910;5.840;2024-02-28T07:34:16;16.27;;;14.48;;
6475;SDS011;3271;51.910;5.840;2024-02-28T07:36:42;19.10;;;15.32;;
6475;SDS011;3271;51.910;5.840;2024-02-28T07:39:08;17.92;;;14.68;;
6475;SDS011;3271;51.910;5.840;2024-02-28T07:41:37;18.90;;;14.50;;
6475;SDS011;3271;51.910;5.840;2024-02-28T07:44:03;23.02;;;16.23;;
6475;SDS011;3271;51.910;5.840;2024-02-28T07:46:30;20.58;;;16.25;;
6475;SDS011;3271;51.910;5.840;2024-02-28T07:48:56;19.52;;;14.80;;
6475;SDS011;3271;51.910;5.840;2024-02-28T07:51:22;20.10;;;16.00;;
6475;SDS011;3271;51.910;5.840;2024-02-28T07:53:48;21.98;;;15.85;;
6475;SDS011;3271;51.910;5.840;2024-02-28T07:56:17;19.67;;;16.20;;
6475;SDS011;3271;51.910;5.840;2024-02-28T07:58:44;17.77;;;14.43;;
6475;SDS011;3271;51.910;5.840;2024-02-28T08:01:10;21.02;;;15.60;;
6475;SDS011;3271;51.910;5.840;2024-02-28T08:03:36;20.45;;;16.48;;
6475;SDS011;3271;51.910;5.840;2024-02-28T08:06:02;19.85;;;15.73;;
6475;SDS011;3271;51.910;5.840;2024-02-28T08:08:28;18.77;;;15.35;;
6475;SDS011;3271;51.910;5.840;2024-02-28T08:10:54;19.17;;;16.42;;
6475;SDS011;3271;51.910;5.840;2024-02-28T08:13:20;20.98;;;15.73;;
6475;SDS011;3271;51.910;5.840;2024-02-28T08:15:47;20.77;;;15.50;;
6475;SDS011;3271;51.910;5.840;2024-02-28T08:18:13;19.02;;;14.75;;
6475;SDS011;3271;51.910;5.840;2024-02-28T08:20:39;18.27;;;14.43;;
6475;SDS011;3271;51.910;5.840;2024-02-28T08:23:05;21.55;;;16.33;;
6475;SDS011;3271;51.910;5.840;2024-02-28T08:25:31;25.17;;;15.82;;
6475;SDS011;3271;51.910;5.840;2024-02-28T08:27:57;20.58;;;15.70;;
6475;SDS011;3271;51.910;5.840;2024-02-28T08:30:23;18.90;;;15.48;;
6475;SDS011;3271;51.910;5.840;2024-02-28T08:32:50;21.67;;;16.75;;
6475;SDS011;3271;51.910;5.840;2024-02-28T08:35:17;17.63;;;15.30;;
6475;SDS011;3271;51.910;5.840;2024-02-28T08:37:44;18.05;;;14.85;;
6475;SDS011;3271;51.910;5.840;2024-02-28T08:40:10;18.90;;;15.75;;
6475;SDS011;3271;51.910;5.840;2024-02-28T08:42:37;17.42;;;15.57;;
6475;SDS011;3271;51.910;5.840;2024-02-28T08:45:03;20.33;;;16.77;;
6475;SDS011;3271;51.910;5.840;2024-02-28T08:47:31;18.17;;;14.63;;
6475;SDS011;3271;51.910;5.840;2024-02-28T08:49:58;22.02;;;17.65;;
6475;SDS011;3271;51.910;5.840;2024-02-28T08:52:24;19.38;;;16.02;;
6475;SDS011;3271;51.910;5.840;2024-02-28T08:54:50;21.83;;;16.52;;
6475;SDS011;3271;51.910;5.840;2024-02-28T08:57:16;21.08;;;17.38;;
6475;SDS011;3271;51.910;5.840;2024-02-28T08:59:42;21.40;;;16.27;;
6475;SDS011;3271;51.910;5.840;2024-02-28T09:02:08;22.65;;;16.77;;
6475;SDS011;3271;51.910;5.840;2024-02-28T09:04:36;19.00;;;15.88;;
6475;SDS011;3271;51.910;5.840;2024-02-28T09:07:02;18.58;;;15.73;;
6475;SDS011;3271;51.910;5.840;2024-02-28T09:09:28;18.98;;;15.50;;
6475;SDS011;3271;51.910;5.840;2024-02-28T09:11:57;20.08;;;16.30;;
6475;SDS011;3271;51.910;5.840;2024-02-28T09:14:23;19.40;;;15.32;;
6475;SDS011;3271;51.910;5.840;2024-02-28T09:16:49;19.80;;;15.40;;
6475;SDS011;3271;51.910;5.840;2024-02-28T09:19:15;20.70;;;16.45;;
6475;SDS011;3271;51.910;5.840;2024-02-28T09:21:42;19.98;;;17.05;;
6475;SDS011;3271;51.910;5.840;2024-02-28T09:24:08;21.50;;;15.95;;
6475;SDS011;3271;51.910;5.840;2024-02-28T09:26:34;18.58;;;15.57;;
6475;SDS011;3271;51.910;5.840;2024-02-28T09:29:04;19.80;;;15.32;;
6475;SDS011;3271;51.910;5.840;2024-02-28T09:31:30;18.55;;;15.82;;
6475;SDS011;3271;51.910;5.840;2024-02-28T09:33:56;19.20;;;16.90;;
6475;SDS011;3271;51.910;5.840;2024-02-28T09:36:23;19.83;;;16.75;;
6475;SDS011;3271;51.910;5.840;2024-02-28T09:38:49;17.25;;;15.48;;
6475;SDS011;3271;51.910;5.840;2024-02-28T09:41:15;19.40;;;15.45;;
6475;SDS011;3271;51.910;5.840;2024-02-28T09:43:41;18.05;;;15.25;;
6475;SDS011;3271;51.910;5.840;2024-02-28T09:46:07;22.75;;;18.00;;
6475;SDS011;3271;51.910;5.840;2024-02-28T09:48:40;21.20;;;17.98;;
6475;SDS011;3271;51.910;5.840;2024-02-28T09:51:07;21.73;;;17.65;;
6475;SDS011;3271;51.910;5.840;2024-02-28T09:53:34;18.17;;;15.88;;
6475;SDS011;3271;51.910;5.840;2024-02-28T09:56:01;20.27;;;16.35;;
6475;SDS011;3271;51.910;5.840;2024-02-28T09:58:27;20.52;;;16.90;;
6475;SDS011;3271;51.910;5.840;2024-02-28T10:00:55;21.33;;;17.35;;
6475;SDS011;3271;51.910;5.840;2024-02-28T10:03:24;22.40;;;17.13;;
6475;SDS011;3271;51.910;5.840;2024-02-28T10:05:50;19.02;;;16.98;;
6475;SDS011;3271;51.910;5.840;2024-02-28T10:08:16;18.15;;;15.77;;
6475;SDS011;3271;51.910;5.840;2024-02-28T10:10:45;19.17;;;16.50;;
6475;SDS011;3271;51.910;5.840;2024-02-28T10:13:12;20.92;;;17.60;;
6475;SDS011;3271;51.910;5.840;2024-02-28T10:15:38;19.98;;;17.67;;
6475;SDS011;3271;51.910;5.840;2024-02-28T10:18:04;23.75;;;19.13;;
6475;SDS011;3271;51.910;5.840;2024-02-28T10:20:31;20.20;;;18.00;;
6475;SDS011;3271;51.910;5.840;2024-02-28T10:22:57;22.13;;;18.08;;
6475;SDS011;3271;51.910;5.840;2024-02-28T10:25:23;20.83;;;17.70;;
6475;SDS011;3271;51.910;5.840;2024-02-28T10:27:51;19.88;;;17.83;;
6475;SDS011;3271;51.910;5.840;2024-02-28T10:30:18;16.45;;;14.75;;
6475;SDS011;3271;51.910;5.840;2024-02-28T10:32:48;22.00;;;17.55;;
6475;SDS011;3271;51.910;5.840;2024-02-28T10:35:14;19.88;;;16.67;;
6475;SDS011;3271;51.910;5.840;2024-02-28T10:37:43;19.80;;;17.13;;
6475;SDS011;3271;51.910;5.840;2024-02-28T10:40:10;19.98;;;17.17;;
6475;SDS011;3271;51.910;5.840;2024-02-28T10:42:37;21.00;;;17.00;;
6475;SDS011;3271;51.910;5.840;2024-02-28T10:45:03;19.70;;;17.58;;
6475;SDS011;3271;51.910;5.840;2024-02-28T10:47:29;19.77;;;16.55;;
6475;SDS011;3271;51.910;5.840;2024-02-28T10:49:55;21.63;;;18.60;;
6475;SDS011;3271;51.910;5.840;2024-02-28T10:52:21;18.90;;;16.33;;
6475;SDS011;3271;51.910;5.840;2024-02-28T10:54:51;20.83;;;16.00;;
6475;SDS011;3271;51.910;5.840;2024-02-28T10:57:19;18.52;;;16.58;;
6475;SDS011;3271;51.910;5.840;2024-02-28T10:59:47;19.90;;;16.40;;
6475;SDS011;3271;51.910;5.840;2024-02-28T11:02:13;22.58;;;17.20;;
6475;SDS011;3271;51.910;5.840;2024-02-28T11:04:40;20.05;;;16.65;;
6475;SDS011;3271;51.910;5.840;2024-02-28T11:07:06;18.00;;;16.02;;
6475;SDS011;3271;51.910;5.840;2024-02-28T11:09:33;19.20;;;16.98;;
6475;SDS011;3271;51.910;5.840;2024-02-28T11:12:00;16.85;;;13.13;;
6475;SDS011;3271;51.910;5.840;2024-02-28T11:14:26;19.80;;;17.67;;
6475;SDS011;3271;51.910;5.840;2024-02-28T11:16:59;23.63;;;16.88;;
6475;SDS011;3271;51.910;5.840;2024-02-28T11:19:27;21.27;;;16.60;;
6475;SDS011;3271;51.910;5.840;2024-02-28T11:21:53;18.88;;;16.10;;
6475;SDS011;3271;51.910;5.840;2024-02-28T11:24:24;19.70;;;16.52;;
6475;SDS011;3271;51.910;5.840;2024-02-28T11:26:50;20.95;;;18.42;;
6475;SDS011;3271;51.910;5.840;2024-02-28T11:29:16;18.85;;;15.27;;
6475;SDS011;3271;51.910;5.840;2024-02-28T11:31:47;21.80;;;19.52;;
6475;SDS011;3271;51.910;5.840;2024-02-28T11:34:13;26.63;;;17.52;;
6475;SDS011;3271;51.910;5.840;2024-02-28T11:36:39;20.40;;;16.55;;
6475;SDS011;3271;51.910;5.840;2024-02-28T11:39:07;22.15;;;16.85;;
6475;SDS011;3271;51.910;5.840;2024-02-28T11:41:33;23.83;;;19.10;;
6475;SDS011;3271;51.910;5.840;2024-02-28T11:43:59;19.58;;;17.38;;
6475;SDS011;3271;51.910;5.840;2024-02-28T11:46:26;28.55;;;18.75;;
6475;SDS011;3271;51.910;5.840;2024-02-28T11:48:52;20.55;;;17.95;;
6475;SDS011;3271;51.910;5.840;2024-02-28T11:51:20;21.05;;;18.40;;
6475;SDS011;3271;51.910;5.840;2024-02-28T11:53:46;20.25;;;17.02;;
6475;SDS011;3271;51.910;5.840;2024-02-28T11:56:12;19.35;;;16.92;;
6475;SDS011;3271;51.910;5.840;2024-02-28T11:58:51;19.85;;;17.48;;
6475;SDS011;3271;51.910;5.840;2024-02-28T12:01:17;20.27;;;16.27;;
6475;SDS011;3271;51.910;5.840;2024-02-28T12:03:46;19.60;;;16.23;;
6475;SDS011;3271;51.910;5.840;2024-02-28T12:06:12;22.67;;;15.50;;
6475;SDS011;3271;51.910;5.840;2024-02-28T12:08:38;20.08;;;15.18;;
6475;SDS011;3271;51.910;5.840;2024-02-28T12:11:07;19.77;;;15.02;;
6475;SDS011;3271;51.910;5.840;2024-02-28T12:13:35;17.30;;;13.68;;
6475;SDS011;3271;51.910;5.840;2024-02-28T12:16:01;17.35;;;15.55;;
6475;SDS011;3271;51.910;5.840;2024-02-28T12:18:27;22.88;;;14.32;;
6475;SDS011;3271;51.910;5.840;2024-02-28T12:20:53;18.42;;;14.63;;
6475;SDS011;3271;51.910;5.840;2024-02-28T12:23:19;17.13;;;14.52;;
6475;SDS011;3271;51.910;5.840;2024-02-28T12:25:46;21.25;;;15.25;;
6475;SDS011;3271;51.910;5.840;2024-02-28T12:28:12;23.35;;;15.18;;
6475;SDS011;3271;51.910;5.840;2024-02-28T12:30:41;19.48;;;15.18;;
6475;SDS011;3271;51.910;5.840;2024-02-28T12:33:07;16.95;;;15.18;;
6475;SDS011;3271;51.910;5.840;2024-02-28T12:35:33;16.35;;;13.45;;
6475;SDS011;3271;51.910;5.840;2024-02-28T12:37:59;15.40;;;13.50;;
6475;SDS011;3271;51.910;5.840;2024-02-28T12:40:25;20.63;;;14.68;;
6475;SDS011;3271;51.910;5.840;2024-02-28T12:42:51;17.05;;;13.35;;
6475;SDS011;3271;51.910;5.840;2024-02-28T12:45:17;18.63;;;15.50;;
6475;SDS011;3271;51.910;5.840;2024-02-28T12:47:43;22.48;;;16.35;;
6475;SDS011;3271;51.910;5.840;2024-02-28T12:50:09;21.80;;;15.98;;
6475;SDS011;3271;51.910;5.840;2024-02-28T12:52:36;23.20;;;16.48;;
6475;SDS011;3271;51.910;5.840;2024-02-28T12:55:02;18.48;;;15.68;;
6475;SDS011;3271;51.910;5.840;2024-02-28T12:57:28;20.20;;;16.15;;
6475;SDS011;3271;51.910;5.840;2024-02-28T12:59:54;17.95;;;14.68;;
6475;SDS011;3271;51.910;5.840;2024-02-28T13:02:21;20.10;;;16.50;;
6475;SDS011;3271;51.910;5.840;2024-02-28T13:04:47;22.30;;;16.63;;
6475;SDS011;3271;51.910;5.840;2024-02-28T13:07:14;21.23;;;17.35;;
6475;SDS011;3271;51.910;5.840;2024-02-28T13:09:40;17.27;;;13.18;;
6475;SDS011;3271;51.910;5.840;2024-02-28T13:12:07;20.50;;;15.35;;
6475;SDS011;3271;51.910;5.840;2024-02-28T13:14:33;22.17;;;12.95;;
6475;SDS011;3271;51.910;5.840;2024-02-28T13:16:59;18.70;;;14.95;;
6475;SDS011;3271;51.910;5.840;2024-02-28T13:19:25;16.17;;;13.68;;
6475;SDS011;3271;51.910;5.840;2024-02-28T13:21:51;17.27;;;13.98;;
6475;SDS011;3271;51.910;5.840;2024-02-28T13:24:17;16.17;;;14.48;;
6475;SDS011;3271;51.910;5.840;2024-02-28T13:26:43;18.00;;;13.98;;
6475;SDS011;3271;51.910;5.840;2024-02-28T13:29:09;19.40;;;14.88;;
6475;SDS011;3271;51.910;5.840;2024-02-28T13:31:35;17.85;;;14.27;;
6475;SDS011;3271;51.910;5.840;2024-02-28T13:34:01;15.88;;;14.20;;
6475;SDS011;3271;51.910;5.840;2024-02-28T13:36:28;15.02;;;13.43;;
6475;SDS011;3271;51.910;5.840;2024-02-28T13:38:57;15.45;;;13.48;;
6475;SDS011;3271;51.910;5.840;2024-02-28T13:41:23;15.30;;;12.57;;
6475;SDS011;3271;51.910;5.840;2024-02-28T13:43:49;15.68;;;12.73;;
6475;SDS011;3271;51.910;5.840;2024-02-28T13:46:15;16.33;;;13.35;;
6475;SDS011;3271;51.910;5.840;2024-02-28T13:48:41;16.17;;;11.80;;
6475;SDS011;3271;51.910;5.840;2024-02-28T13:51:07;15.60;;;12.77;;
6475;SDS011;3271;51.910;5.840;2024-02-28T13:53:33;14.27;;;12.38;;
6475;SDS011;3271;51.910;5.840;2024-02-28T13:55:59;17.67;;;13.93;;
6475;SDS011;3271;51.910;5.840;2024-02-28T13:58:25;18.95;;;14.05;;
6475;SDS011;3271;51.910;5.840;2024-02-28T14:00:52;18.45;;;13.20;;
6475;SDS011;3271;51.910;5.840;2024-02-28T14:03:18;16.33;;;13.60;;
6475;SDS011;3271;51.910;5.840;2024-02-28T14:05:44;20.45;;;15.40;;
6475;SDS011;3271;51.910;5.840;2024-02-28T14:08:10;16.25;;;14.32;;
6475;SDS011;3271;51.910;5.840;2024-02-28T14:10:37;18.95;;;15.27;;
6475;SDS011;3271;51.910;5.840;2024-02-28T14:13:03;18.45;;;14.13;;
6475;SDS011;3271;51.910;5.840;2024-02-28T14:15:29;17.60;;;14.82;;
6475;SDS011;3271;51.910;5.840;2024-02-28T14:17:55;19.65;;;15.25;;
6475;SDS011;3271;51.910;5.840;2024-02-28T14:20:21;20.80;;;16.75;;
6475;SDS011;3271;51.910;5.840;2024-02-28T14:22:47;20.38;;;18.05;;
6475;SDS011;3271;51.910;5.840;2024-02-28T14:25:14;22.00;;;17.15;;
6475;SDS011;3271;51.910;5.840;2024-02-28T14:30:33;19.70;;;17.00;;
6475;SDS011;3271;51.910;5.840;2024-02-28T14:32:59;30.42;;;18.05;;
6475;SDS011;3271;51.910;5.840;2024-02-28T14:35:25;22.92;;;17.08;;
6475;SDS011;3271;51.910;5.840;2024-02-28T14:37:51;27.10;;;16.33;;
6475;SDS011;3271;51.910;5.840;2024-02-28T14:40:17;23.45;;;16.08;;
6475;SDS011;3271;51.910;5.840;2024-02-28T14:42:43;19.80;;;15.63;;
6475;SDS011;3271;51.910;5.840;2024-02-28T14:45:13;21.05;;;15.20;;